sensor_id;sensor_type;location;lat;lon;timestamp;pressure;altitude;pressure_sealevel;temperature;humidity
68230;BME280;55048;52.220;5.160;2023-07-20T00:01:03;101186.50;;;17.10;78.38
68230;BME280;55048;52.220;5.160;2023-07-20T00:03:28;101338.84;;;18.01;78.30
68230;BME280;55048;52.220;5.160;2023-07-20T00:05:54;101340.41;;;18.13;78.14
68230;BME280;55048;52.220;5.160;2023-07-20T00:08:19;101303.38;;;17.74;78.46
68230;BME280;55048;52.220;5.160;2023-07-20T00:10:45;101336.66;;;18.03;78.34
68230;BME280;55048;52.220;5.160;2023-07-20T00:13:11;101390.69;;;18.27;78.59
68230;BME280;55048;52.220;5.160;2023-07-20T00:15:36;101366.00;;;18.05;78.89
68230;BME280;55048;52.220;5.160;2023-07-20T00:18:03;101324.31;;;17.72;79.13
68230;BME280;55048;52.220;5.160;2023-07-20T00:20:29;101253.41;;;17.32;78.88
68230;BME280;55048;52.220;5.160;2023-07-20T00:22:54;101340.75;;;17.80;78.96
68230;BME280;55048;52.220;5.160;2023-07-20T00:25:20;101326.78;;;17.73;78.98
68230;BME280;55048;52.220;5.160;2023-07-20T00:27:46;101389.63;;;18.18;79.37
68230;BME280;55048;52.220;5.160;2023-07-20T00:30:12;101266.56;;;17.39;78.49
68230;BME280;55048;52.220;5.160;2023-07-20T00:32:37;101278.66;;;17.46;78.70
68230;BME280;55048;52.220;5.160;2023-07-20T00:35:03;101335.66;;;17.79;78.54
68230;BME280;55048;52.220;5.160;2023-07-20T00:37:28;101392.34;;;18.13;78.43
68230;BME280;55048;52.220;5.160;2023-07-20T00:39:54;101304.47;;;17.63;78.50
68230;BME280;55048;52.220;5.160;2023-07-20T00:42:19;101332.94;;;17.84;78.53
68230;BME280;55048;52.220;5.160;2023-07-20T00:44:45;101330.53;;;17.82;78.50
68230;BME280;55048;52.220;5.160;2023-07-20T00:47:10;101351.50;;;17.85;79.02
68230;BME280;55048;52.220;5.160;2023-07-20T00:49:37;101318.72;;;17.63;78.73
68230;BME280;55048;52.220;5.160;2023-07-20T00:52:03;101379.72;;;17.98;78.95
68230;BME280;55048;52.220;5.160;2023-07-20T00:54:31;101368.22;;;17.82;79.29
68230;BME280;55048;52.220;5.160;2023-07-20T00:56:56;101271.16;;;17.23;79.24
68230;BME280;55048;52.220;5.160;2023-07-20T00:59:23;101391.06;;;17.95;79.54
68230;BME280;55048;52.220;5.160;2023-07-20T01:01:49;101396.44;;;17.90;79.86
68230;BME280;55048;52.220;5.160;2023-07-20T01:04:15;101335.69;;;17.53;80.06
68230;BME280;55048;52.220;5.160;2023-07-20T01:06:57;101385.16;;;17.88;79.96
68230;BME280;55048;52.220;5.160;2023-07-20T01:09:30;101385.66;;;17.90;79.58
68230;BME280;55048;52.220;5.160;2023-07-20T01:14:34;101383.56;;;17.77;80.10
68230;BME280;55048;52.220;5.160;2023-07-20T01:17:01;101392.66;;;17.71;80.37
68230;BME280;55048;52.220;5.160;2023-07-20T01:19:26;101338.63;;;17.37;80.48
68230;BME280;55048;52.220;5.160;2023-07-20T01:25:07;101392.38;;;17.62;81.74
68230;BME280;55048;52.220;5.160;2023-07-20T01:33:15;101358.25;;;17.42;80.68
68230;BME280;55048;52.220;5.160;2023-07-20T01:35:43;101348.03;;;17.29;80.37
68230;BME280;55048;52.220;5.160;2023-07-20T01:38:11;101390.50;;;17.42;80.97
68230;BME280;55048;52.220;5.160;2023-07-20T01:40:38;101372.78;;;17.26;81.32
68230;BME280;55048;52.220;5.160;2023-07-20T01:43:05;101259.25;;;16.47;81.11
68230;BME280;55048;52.220;5.160;2023-07-20T01:45:30;101237.19;;;16.20;82.91
68230;BME280;55048;52.220;5.160;2023-07-20T01:47:56;101334.81;;;16.87;82.36
68230;BME280;55048;52.220;5.160;2023-07-20T01:50:22;101250.09;;;16.38;82.18
68230;BME280;55048;52.220;5.160;2023-07-20T01:52:47;101344.25;;;16.89;82.40
68230;BME280;55048;52.220;5.160;2023-07-20T01:55:13;101275.09;;;16.44;82.37
68230;BME280;55048;52.220;5.160;2023-07-20T01:57:39;101269.69;;;16.33;82.54
68230;BME280;55048;52.220;5.160;2023-07-20T02:00:05;101337.50;;;16.81;82.46
68230;BME280;55048;52.220;5.160;2023-07-20T02:02:39;101400.47;;;17.21;82.37
68230;BME280;55048;52.220;5.160;2023-07-20T02:05:06;101319.78;;;16.75;82.09
68230;BME280;55048;52.220;5.160;2023-07-20T02:07:33;101407.72;;;17.26;82.41
68230;BME280;55048;52.220;5.160;2023-07-20T02:09:58;101331.84;;;16.83;82.19
68230;BME280;55048;52.220;5.160;2023-07-20T02:12:23;101357.41;;;17.06;81.99
68230;BME280;55048;52.220;5.160;2023-07-20T02:14:49;101332.94;;;16.92;82.09
68230;BME280;55048;52.220;5.160;2023-07-20T02:17:16;101389.44;;;17.33;81.60
68230;BME280;55048;52.220;5.160;2023-07-20T02:19:41;101279.13;;;16.51;81.29
68230;BME280;55048;52.220;5.160;2023-07-20T02:22:07;101373.56;;;17.16;81.32
68230;BME280;55048;52.220;5.160;2023-07-20T02:24:33;101334.81;;;16.92;81.06
68230;BME280;55048;52.220;5.160;2023-07-20T02:26:59;101395.09;;;17.31;81.09
68230;BME280;55048;52.220;5.160;2023-07-20T02:29:25;101258.16;;;16.38;80.64
68230;BME280;55048;52.220;5.160;2023-07-20T02:31:50;101347.16;;;16.88;80.36
68230;BME280;55048;52.220;5.160;2023-07-20T02:34:15;101384.84;;;17.18;80.41
68230;BME280;55048;52.220;5.160;2023-07-20T02:36:41;101290.13;;;16.55;80.04
68230;BME280;55048;52.220;5.160;2023-07-20T02:39:08;101343.16;;;16.90;80.24
68230;BME280;55048;52.220;5.160;2023-07-20T02:41:34;101370.03;;;17.00;79.77
68230;BME280;55048;52.220;5.160;2023-07-20T02:44:00;101366.28;;;16.96;79.82
68230;BME280;55048;52.220;5.160;2023-07-20T02:46:26;101360.38;;;16.94;79.85
68230;BME280;55048;52.220;5.160;2023-07-20T02:48:52;101377.81;;;16.97;79.32
68230;BME280;55048;52.220;5.160;2023-07-20T02:51:17;101311.88;;;16.53;79.47
68230;BME280;55048;52.220;5.160;2023-07-20T02:53:42;101402.56;;;17.09;79.48
68230;BME280;55048;52.220;5.160;2023-07-20T02:56:08;101322.09;;;16.51;79.59
68230;BME280;55048;52.220;5.160;2023-07-20T02:58:40;101357.31;;;16.70;79.52
68230;BME280;55048;52.220;5.160;2023-07-20T03:01:09;101363.25;;;16.72;79.35
68230;BME280;55048;52.220;5.160;2023-07-20T03:03:36;101305.88;;;16.26;79.55
68230;BME280;55048;52.220;5.160;2023-07-20T03:06:05;101397.66;;;16.75;79.77
68230;BME280;55048;52.220;5.160;2023-07-20T03:08:30;101408.94;;;16.77;79.75
68230;BME280;55048;52.220;5.160;2023-07-20T03:10:55;101362.38;;;16.51;79.68
68230;BME280;55048;52.220;5.160;2023-07-20T03:13:21;101404.34;;;16.73;79.79
68230;BME280;55048;52.220;5.160;2023-07-20T03:15:46;101391.69;;;16.68;80.12
68230;BME280;55048;52.220;5.160;2023-07-20T03:18:12;101327.06;;;16.22;80.09
68230;BME280;55048;52.220;5.160;2023-07-20T03:20:38;101370.91;;;16.43;80.02
68230;BME280;55048;52.220;5.160;2023-07-20T03:23:04;101426.66;;;16.78;80.20
68230;BME280;55048;52.220;5.160;2023-07-20T03:25:30;101334.31;;;16.22;79.87
68230;BME280;55048;52.220;5.160;2023-07-20T03:27:56;101430.44;;;16.82;79.83
68230;BME280;55048;52.220;5.160;2023-07-20T03:30:21;101342.63;;;16.20;79.55
68230;BME280;55048;52.220;5.160;2023-07-20T03:32:48;101427.66;;;16.67;79.71
68230;BME280;55048;52.220;5.160;2023-07-20T03:35:14;101378.97;;;16.38;79.61
68230;BME280;55048;52.220;5.160;2023-07-20T03:37:41;101439.03;;;16.74;79.82
68230;BME280;55048;52.220;5.160;2023-07-20T03:40:07;101438.47;;;16.72;79.85
68230;BME280;55048;52.220;5.160;2023-07-20T03:42:33;101437.34;;;16.68;79.72
68230;BME280;55048;52.220;5.160;2023-07-20T03:44:59;101380.25;;;16.30;79.63
68230;BME280;55048;52.220;5.160;2023-07-20T03:47:25;101403.41;;;16.42;79.66
68230;BME280;55048;52.220;5.160;2023-07-20T03:49:51;101400.44;;;16.38;79.85
68230;BME280;55048;52.220;5.160;2023-07-20T03:52:16;101406.09;;;16.42;80.07
68230;BME280;55048;52.220;5.160;2023-07-20T03:54:42;101404.97;;;16.32;79.92
68230;BME280;55048;52.220;5.160;2023-07-20T03:57:07;101411.38;;;16.31;80.04
68230;BME280;55048;52.220;5.160;2023-07-20T03:59:34;101385.31;;;16.22;80.04
68230;BME280;55048;52.220;5.160;2023-07-20T04:02:00;101299.16;;;15.66;80.10
68230;BME280;55048;52.220;5.160;2023-07-20T04:04:25;101364.25;;;15.98;80.16
68230;BME280;55048;52.220;5.160;2023-07-20T04:06:51;101454.75;;;16.55;80.35
68230;BME280;55048;52.220;5.160;2023-07-20T04:09:16;101455.00;;;16.54;80.41
68230;BME280;55048;52.220;5.160;2023-07-20T04:11:41;101449.63;;;16.54;80.42
68230;BME280;55048;52.220;5.160;2023-07-20T04:14:07;101412.44;;;16.25;80.36
68230;BME280;55048;52.220;5.160;2023-07-20T04:16:32;101395.22;;;16.16;80.48
68230;BME280;55048;52.220;5.160;2023-07-20T04:18:58;101449.09;;;16.52;80.57
68230;BME280;55048;52.220;5.160;2023-07-20T04:21:27;101454.69;;;16.50;80.33
68230;BME280;55048;52.220;5.160;2023-07-20T04:23:53;101319.56;;;15.67;80.42
68230;BME280;55048;52.220;5.160;2023-07-20T04:26:18;101366.09;;;15.93;80.25
68230;BME280;55048;52.220;5.160;2023-07-20T04:28:44;101428.81;;;16.24;80.23
68230;BME280;55048;52.220;5.160;2023-07-20T04:31:15;101465.72;;;16.49;80.51
68230;BME280;55048;52.220;5.160;2023-07-20T04:33:42;101468.13;;;16.50;80.67
68230;BME280;55048;52.220;5.160;2023-07-20T04:36:08;101431.25;;;16.30;80.58
68230;BME280;55048;52.220;5.160;2023-07-20T04:38:35;101397.56;;;16.07;81.05
68230;BME280;55048;52.220;5.160;2023-07-20T04:41:13;101425.84;;;16.25;81.30
68230;BME280;55048;52.220;5.160;2023-07-20T04:43:43;101469.78;;;16.51;81.49
68230;BME280;55048;52.220;5.160;2023-07-20T04:46:10;101353.13;;;15.79;81.62
68230;BME280;55048;52.220;5.160;2023-07-20T04:48:36;101431.22;;;16.25;81.61
68230;BME280;55048;52.220;5.160;2023-07-20T04:51:02;101456.25;;;16.36;82.08
68230;BME280;55048;52.220;5.160;2023-07-20T04:53:28;101481.84;;;16.54;81.97
68230;BME280;55048;52.220;5.160;2023-07-20T04:55:54;101457.63;;;16.44;82.02
68230;BME280;55048;52.220;5.160;2023-07-20T04:58:22;101429.34;;;16.26;81.75
68230;BME280;55048;52.220;5.160;2023-07-20T05:00:49;101449.56;;;16.39;81.95
68230;BME280;55048;52.220;5.160;2023-07-20T05:03:14;101444.44;;;16.32;82.19
68230;BME280;55048;52.220;5.160;2023-07-20T05:05:40;101451.97;;;16.40;82.08
68230;BME280;55048;52.220;5.160;2023-07-20T05:08:06;101377.13;;;15.96;82.19
68230;BME280;55048;52.220;5.160;2023-07-20T05:10:32;101476.53;;;16.64;82.04
68230;BME280;55048;52.220;5.160;2023-07-20T05:12:58;101478.16;;;16.65;82.37
68230;BME280;55048;52.220;5.160;2023-07-20T05:15:24;101432.63;;;16.33;82.18
68230;BME280;55048;52.220;5.160;2023-07-20T05:17:51;101445.28;;;16.43;82.10
68230;BME280;55048;52.220;5.160;2023-07-20T05:20:16;101484.88;;;16.68;81.95
68230;BME280;55048;52.220;5.160;2023-07-20T05:22:42;101482.97;;;16.63;82.38
68230;BME280;55048;52.220;5.160;2023-07-20T05:25:09;101460.34;;;16.49;81.90
68230;BME280;55048;52.220;5.160;2023-07-20T05:27:39;101457.94;;;16.52;82.07
68230;BME280;55048;52.220;5.160;2023-07-20T05:30:05;101484.41;;;16.76;81.79
68230;BME280;55048;52.220;5.160;2023-07-20T05:32:31;101405.75;;;16.28;81.49
68230;BME280;55048;52.220;5.160;2023-07-20T05:34:57;101405.22;;;16.31;81.56
68230;BME280;55048;52.220;5.160;2023-07-20T05:37:22;101443.16;;;16.50;81.48
68230;BME280;55048;52.220;5.160;2023-07-20T05:39:47;101482.03;;;16.85;81.12
68230;BME280;55048;52.220;5.160;2023-07-20T05:42:13;101400.69;;;16.37;80.71
68230;BME280;55048;52.220;5.160;2023-07-20T05:44:39;101445.66;;;16.67;80.75
68230;BME280;55048;52.220;5.160;2023-07-20T05:47:05;101443.25;;;16.65;80.85
68230;BME280;55048;52.220;5.160;2023-07-20T05:49:31;101483.97;;;16.99;80.47
68230;BME280;55048;52.220;5.160;2023-07-20T05:51:56;101279.63;;;15.75;79.91
68230;BME280;55048;52.220;5.160;2023-07-20T05:54:24;101418.34;;;16.75;79.44
68230;BME280;55048;52.220;5.160;2023-07-20T05:56:49;101426.72;;;16.94;79.28
68230;BME280;55048;52.220;5.160;2023-07-20T05:59:15;101466.31;;;17.24;78.69
68230;BME280;55048;52.220;5.160;2023-07-20T06:01:41;101413.59;;;17.02;78.35
68230;BME280;55048;52.220;5.160;2023-07-20T06:04:07;101482.78;;;17.58;78.40
68230;BME280;55048;52.220;5.160;2023-07-20T06:06:33;101465.84;;;17.68;77.82
68230;BME280;55048;52.220;5.160;2023-07-20T06:08:59;101397.50;;;17.48;77.09
68230;BME280;55048;52.220;5.160;2023-07-20T06:11:28;101487.59;;;18.48;72.93
68230;BME280;55048;52.220;5.160;2023-07-20T06:13:53;101432.91;;;18.52;74.49
68230;BME280;55048;52.220;5.160;2023-07-20T06:16:19;101379.34;;;18.41;72.66
68230;BME280;55048;52.220;5.160;2023-07-20T06:18:44;101450.41;;;19.15;69.93
68230;BME280;55048;52.220;5.160;2023-07-20T06:21:10;101470.19;;;19.44;68.71
68230;BME280;55048;52.220;5.160;2023-07-20T06:23:36;101480.38;;;19.52;68.22
68230;BME280;55048;52.220;5.160;2023-07-20T06:26:01;101497.50;;;19.77;67.46
68230;BME280;55048;52.220;5.160;2023-07-20T06:28:27;101431.13;;;19.36;65.94
68230;BME280;55048;52.220;5.160;2023-07-20T06:30:52;101504.75;;;19.81;65.86
68230;BME280;55048;52.220;5.160;2023-07-20T06:33:17;101438.06;;;19.48;65.16
68230;BME280;55048;52.220;5.160;2023-07-20T06:35:43;101498.25;;;19.87;64.43
68230;BME280;55048;52.220;5.160;2023-07-20T06:38:08;101500.69;;;19.84;64.19
68230;BME280;55048;52.220;5.160;2023-07-20T06:40:34;101457.09;;;19.67;63.90
68230;BME280;55048;52.220;5.160;2023-07-20T06:42:59;101449.00;;;19.67;63.18
68230;BME280;55048;52.220;5.160;2023-07-20T06:45:25;101434.25;;;19.54;63.00
68230;BME280;55048;52.220;5.160;2023-07-20T06:47:50;101298.66;;;18.75;61.62
68230;BME280;55048;52.220;5.160;2023-07-20T06:50:16;101515.81;;;20.14;60.67
68230;BME280;55048;52.220;5.160;2023-07-20T06:52:41;101466.09;;;19.91;60.48
68230;BME280;55048;52.220;5.160;2023-07-20T06:55:07;101474.19;;;19.91;59.71
68230;BME280;55048;52.220;5.160;2023-07-20T06:57:33;101517.59;;;19.95;60.33
68230;BME280;55048;52.220;5.160;2023-07-20T06:59:58;101483.63;;;19.54;60.74
68230;BME280;55048;52.220;5.160;2023-07-20T07:02:24;101495.22;;;19.55;61.23
68230;BME280;55048;52.220;5.160;2023-07-20T07:04:49;101456.06;;;19.57;60.43
68230;BME280;55048;52.220;5.160;2023-07-20T07:07:15;101476.94;;;19.81;58.90
68230;BME280;55048;52.220;5.160;2023-07-20T07:09:41;101506.34;;;20.17;58.12
68230;BME280;55048;52.220;5.160;2023-07-20T07:12:07;101480.69;;;19.85;57.92
68230;BME280;55048;52.220;5.160;2023-07-20T07:14:33;101501.28;;;19.76;57.63
68230;BME280;55048;52.220;5.160;2023-07-20T07:16:58;101456.50;;;19.30;57.67
68230;BME280;55048;52.220;5.160;2023-07-20T07:19:24;101488.84;;;19.41;57.48
68230;BME280;55048;52.220;5.160;2023-07-20T07:21:49;101506.25;;;19.58;57.52
68230;BME280;55048;52.220;5.160;2023-07-20T07:24:16;101466.88;;;19.52;56.97
68230;BME280;55048;52.220;5.160;2023-07-20T07:26:41;101487.09;;;19.94;57.04
68230;BME280;55048;52.220;5.160;2023-07-20T07:29:07;101520.78;;;20.31;56.73
68230;BME280;55048;52.220;5.160;2023-07-20T07:31:34;101508.28;;;20.40;55.20
68230;BME280;55048;52.220;5.160;2023-07-20T07:34:00;101293.25;;;19.14;54.20
68230;BME280;55048;52.220;5.160;2023-07-20T07:36:26;101491.13;;;20.55;53.50
68230;BME280;55048;52.220;5.160;2023-07-20T07:38:51;101506.94;;;20.91;51.91
68230;BME280;55048;52.220;5.160;2023-07-20T07:41:17;101506.31;;;20.99;50.65
68230;BME280;55048;52.220;5.160;2023-07-20T07:43:42;101519.31;;;21.15;50.90
68230;BME280;55048;52.220;5.160;2023-07-20T07:46:08;101488.84;;;21.10;50.83
68230;BME280;55048;52.220;5.160;2023-07-20T07:48:33;101515.66;;;21.25;50.36
68230;BME280;55048;52.220;5.160;2023-07-20T07:50:59;101487.00;;;21.24;50.99
68230;BME280;55048;52.220;5.160;2023-07-20T07:53:24;101494.22;;;21.34;51.04
68230;BME280;55048;52.220;5.160;2023-07-20T07:55:51;101476.38;;;21.33;49.99
68230;BME280;55048;52.220;5.160;2023-07-20T07:58:18;101526.50;;;21.82;49.79
68230;BME280;55048;52.220;5.160;2023-07-20T08:00:43;101462.53;;;21.53;49.33
68230;BME280;55048;52.220;5.160;2023-07-20T08:03:10;101528.09;;;22.02;48.50
68230;BME280;55048;52.220;5.160;2023-07-20T08:05:35;101522.50;;;21.79;46.56
68230;BME280;55048;52.220;5.160;2023-07-20T08:08:04;101532.84;;;21.91;47.01
68230;BME280;55048;52.220;5.160;2023-07-20T08:10:30;101462.88;;;21.65;46.94
68230;BME280;55048;52.220;5.160;2023-07-20T08:12:56;101529.97;;;22.20;47.15
68230;BME280;55048;52.220;5.160;2023-07-20T08:15:21;101500.97;;;22.21;46.50
68230;BME280;55048;52.220;5.160;2023-07-20T08:17:47;101475.69;;;22.11;45.39
68230;BME280;55048;52.220;5.160;2023-07-20T08:20:14;101519.69;;;22.50;45.52
68230;BME280;55048;52.220;5.160;2023-07-20T08:22:41;101519.19;;;22.48;45.71
68230;BME280;55048;52.220;5.160;2023-07-20T08:25:08;101517.56;;;22.47;45.99
68230;BME280;55048;52.220;5.160;2023-07-20T08:27:33;101478.53;;;22.34;45.87
68230;BME280;55048;52.220;5.160;2023-07-20T08:29:59;101482.53;;;22.36;45.86
68230;BME280;55048;52.220;5.160;2023-07-20T08:32:25;101486.66;;;22.48;46.21
68230;BME280;55048;52.220;5.160;2023-07-20T08:34:51;101477.41;;;22.35;45.41
68230;BME280;55048;52.220;5.160;2023-07-20T08:37:16;101484.00;;;22.15;45.73
68230;BME280;55048;52.220;5.160;2023-07-20T08:39:42;101537.53;;;22.51;44.43
68230;BME280;55048;52.220;5.160;2023-07-20T08:42:09;101503.25;;;22.13;43.95
68230;BME280;55048;52.220;5.160;2023-07-20T08:44:37;101529.31;;;22.56;43.17
68230;BME280;55048;52.220;5.160;2023-07-20T08:47:04;101470.41;;;22.48;42.21
68230;BME280;55048;52.220;5.160;2023-07-20T08:49:31;101528.53;;;23.10;41.39
68230;BME280;55048;52.220;5.160;2023-07-20T08:51:58;101464.44;;;22.87;41.88
68230;BME280;55048;52.220;5.160;2023-07-20T08:54:24;101515.53;;;23.21;42.55
68230;BME280;55048;52.220;5.160;2023-07-20T08:56:54;101498.44;;;23.21;42.85
68230;BME280;55048;52.220;5.160;2023-07-20T08:59:23;101495.25;;;23.19;43.31
68230;BME280;55048;52.220;5.160;2023-07-20T09:01:51;101482.75;;;22.95;43.51
68230;BME280;55048;52.220;5.160;2023-07-20T09:04:19;101533.72;;;23.21;44.28
68230;BME280;55048;52.220;5.160;2023-07-20T09:06:44;101541.00;;;23.48;43.49
68230;BME280;55048;52.220;5.160;2023-07-20T09:09:10;101502.53;;;23.46;43.14
68230;BME280;55048;52.220;5.160;2023-07-20T09:11:36;101538.34;;;23.70;42.77
68230;BME280;55048;52.220;5.160;2023-07-20T09:14:06;101482.25;;;23.29;40.88
68230;BME280;55048;52.220;5.160;2023-07-20T09:16:31;101480.09;;;23.40;41.70
68230;BME280;55048;52.220;5.160;2023-07-20T09:19:00;101486.63;;;23.75;40.68
68230;BME280;55048;52.220;5.160;2023-07-20T09:21:29;101533.28;;;24.00;38.93
68230;BME280;55048;52.220;5.160;2023-07-20T09:23:56;101513.66;;;23.80;38.96
68230;BME280;55048;52.220;5.160;2023-07-20T09:26:22;101465.00;;;23.48;38.91
68230;BME280;55048;52.220;5.160;2023-07-20T09:28:49;101512.78;;;23.93;38.01
68230;BME280;55048;52.220;5.160;2023-07-20T09:31:21;101531.09;;;24.10;37.13
68230;BME280;55048;52.220;5.160;2023-07-20T09:33:47;101531.78;;;24.16;36.93
68230;BME280;55048;52.220;5.160;2023-07-20T09:36:13;101456.03;;;23.92;37.19
68230;BME280;55048;52.220;5.160;2023-07-20T09:38:41;101531.22;;;24.59;36.84
68230;BME280;55048;52.220;5.160;2023-07-20T09:41:07;101467.56;;;24.29;38.22
68230;BME280;55048;52.220;5.160;2023-07-20T09:43:36;101523.13;;;24.85;39.35
68230;BME280;55048;52.220;5.160;2023-07-20T09:46:02;101477.38;;;24.78;39.42
68230;BME280;55048;52.220;5.160;2023-07-20T09:48:27;101478.81;;;24.93;39.31
68230;BME280;55048;52.220;5.160;2023-07-20T09:50:54;101487.19;;;25.05;38.69
68230;BME280;55048;52.220;5.160;2023-07-20T09:53:20;101521.50;;;25.58;38.71
68230;BME280;55048;52.220;5.160;2023-07-20T09:55:47;101516.53;;;25.34;38.66
68230;BME280;55048;52.220;5.160;2023-07-20T09:58:13;101518.75;;;25.50;39.01
68230;BME280;55048;52.220;5.160;2023-07-20T10:00:40;101461.88;;;24.96;38.88
68230;BME280;55048;52.220;5.160;2023-07-20T10:03:10;101497.81;;;24.67;39.86
68230;BME280;55048;52.220;5.160;2023-07-20T10:05:39;101511.13;;;24.37;40.41
68230;BME280;55048;52.220;5.160;2023-07-20T10:08:11;101475.31;;;23.82;41.52
68230;BME280;55048;52.220;5.160;2023-07-20T10:10:38;101510.28;;;23.38;41.74
68230;BME280;55048;52.220;5.160;2023-07-20T10:13:10;101379.50;;;23.14;41.55
68230;BME280;55048;52.220;5.160;2023-07-20T10:15:41;101391.44;;;23.58;41.82
68230;BME280;55048;52.220;5.160;2023-07-20T10:20:56;101462.97;;;24.86;40.91
68230;BME280;55048;52.220;5.160;2023-07-20T10:23:22;101485.69;;;24.82;38.90
68230;BME280;55048;52.220;5.160;2023-07-20T10:25:50;101506.34;;;24.91;37.87
68230;BME280;55048;52.220;5.160;2023-07-20T10:28:16;101512.28;;;25.02;37.21
68230;BME280;55048;52.220;5.160;2023-07-20T10:30:42;101496.94;;;25.06;36.12
68230;BME280;55048;52.220;5.160;2023-07-20T10:33:08;101428.88;;;24.89;35.32
68230;BME280;55048;52.220;5.160;2023-07-20T10:35:56;101494.41;;;25.62;37.88
68230;BME280;55048;52.220;5.160;2023-07-20T10:41:15;101466.50;;;25.82;36.95
68230;BME280;55048;52.220;5.160;2023-07-20T10:43:45;101466.66;;;25.94;37.41
68230;BME280;55048;52.220;5.160;2023-07-20T10:46:11;101488.97;;;26.35;38.24
68230;BME280;55048;52.220;5.160;2023-07-20T10:49:04;101497.97;;;26.27;37.95
68230;BME280;55048;52.220;5.160;2023-07-20T10:51:30;101478.88;;;26.35;37.25
68230;BME280;55048;52.220;5.160;2023-07-20T10:54:03;101416.00;;;25.93;37.53
68230;BME280;55048;52.220;5.160;2023-07-20T10:56:29;101412.41;;;26.10;37.14
68230;BME280;55048;52.220;5.160;2023-07-20T10:59:01;101390.50;;;25.98;37.15
68230;BME280;55048;52.220;5.160;2023-07-20T11:01:44;101486.69;;;26.75;37.88
68230;BME280;55048;52.220;5.160;2023-07-20T11:04:09;101447.72;;;26.36;37.30
68230;BME280;55048;52.220;5.160;2023-07-20T11:06:34;101492.72;;;26.60;37.57
68230;BME280;55048;52.220;5.160;2023-07-20T11:09:09;101496.72;;;26.62;37.84
68230;BME280;55048;52.220;5.160;2023-07-20T11:11:43;101489.34;;;26.63;37.36
68230;BME280;55048;52.220;5.160;2023-07-20T11:14:11;101478.97;;;26.39;37.58
68230;BME280;55048;52.220;5.160;2023-07-20T11:16:46;101481.00;;;26.21;37.88
68230;BME280;55048;52.220;5.160;2023-07-20T11:19:25;101442.81;;;25.65;38.93
68230;BME280;55048;52.220;5.160;2023-07-20T11:21:55;101481.25;;;25.90;40.28
68230;BME280;55048;52.220;5.160;2023-07-20T11:24:22;101464.94;;;25.81;39.45
68230;BME280;55048;52.220;5.160;2023-07-20T11:26:54;101426.31;;;25.79;38.67
68230;BME280;55048;52.220;5.160;2023-07-20T11:29:21;101467.69;;;26.19;38.62
68230;BME280;55048;52.220;5.160;2023-07-20T11:31:48;101469.84;;;25.97;37.73
68230;BME280;55048;52.220;5.160;2023-07-20T11:34:15;101373.88;;;25.09;38.28
68230;BME280;55048;52.220;5.160;2023-07-20T11:36:43;101474.03;;;25.94;38.62
68230;BME280;55048;52.220;5.160;2023-07-20T11:39:10;101422.78;;;25.79;38.09
68230;BME280;55048;52.220;5.160;2023-07-20T11:41:36;101377.94;;;25.59;38.53
68230;BME280;55048;52.220;5.160;2023-07-20T11:44:02;101491.22;;;26.33;38.12
68230;BME280;55048;52.220;5.160;2023-07-20T11:46:28;101404.94;;;25.99;37.90
68230;BME280;55048;52.220;5.160;2023-07-20T11:48:58;101420.97;;;26.30;37.71
68230;BME280;55048;52.220;5.160;2023-07-20T11:51:26;101418.19;;;26.38;37.00
68230;BME280;55048;52.220;5.160;2023-07-20T11:53:52;101411.16;;;26.67;36.75
68230;BME280;55048;52.220;5.160;2023-07-20T11:56:18;101406.56;;;26.80;36.67
68230;BME280;55048;52.220;5.160;2023-07-20T11:58:44;101460.41;;;27.21;37.04
68230;BME280;55048;52.220;5.160;2023-07-20T12:01:12;101456.06;;;27.20;37.08
68230;BME280;55048;52.220;5.160;2023-07-20T12:03:38;101454.38;;;27.28;37.14
68230;BME280;55048;52.220;5.160;2023-07-20T12:06:10;101435.69;;;27.17;37.22
68230;BME280;55048;52.220;5.160;2023-07-20T12:08:42;101415.78;;;26.96;36.32
68230;BME280;55048;52.220;5.160;2023-07-20T12:11:08;101433.84;;;26.80;37.00
68230;BME280;55048;52.220;5.160;2023-07-20T12:13:43;101412.78;;;26.68;36.07
68230;BME280;55048;52.220;5.160;2023-07-20T12:16:19;101435.00;;;26.79;37.60
68230;BME280;55048;52.220;5.160;2023-07-20T12:18:45;101424.75;;;26.96;37.05
68230;BME280;55048;52.220;5.160;2023-07-20T12:21:11;101385.59;;;26.51;37.05
68230;BME280;55048;52.220;5.160;2023-07-20T12:23:40;101442.88;;;26.51;37.28
68230;BME280;55048;52.220;5.160;2023-07-20T12:26:07;101437.84;;;26.23;38.11
68230;BME280;55048;52.220;5.160;2023-07-20T12:28:38;101377.72;;;25.90;38.66
68230;BME280;55048;52.220;5.160;2023-07-20T12:31:04;101425.28;;;26.39;38.38
68230;BME280;55048;52.220;5.160;2023-07-20T12:33:29;101438.38;;;26.76;38.55
68230;BME280;55048;52.220;5.160;2023-07-20T12:35:54;101406.41;;;26.55;38.14
68230;BME280;55048;52.220;5.160;2023-07-20T12:38:21;101441.69;;;26.81;37.61
68230;BME280;55048;52.220;5.160;2023-07-20T12:40:48;101437.91;;;26.94;38.02
68230;BME280;55048;52.220;5.160;2023-07-20T12:43:13;101383.47;;;26.56;37.91
68230;BME280;55048;52.220;5.160;2023-07-20T12:45:39;101418.75;;;26.82;37.83
68230;BME280;55048;52.220;5.160;2023-07-20T12:48:04;101363.97;;;26.66;38.10
68230;BME280;55048;52.220;5.160;2023-07-20T12:50:30;101444.38;;;27.32;38.14
68230;BME280;55048;52.220;5.160;2023-07-20T12:52:55;101347.66;;;26.58;37.21
68230;BME280;55048;52.220;5.160;2023-07-20T12:55:21;101424.47;;;26.89;37.42
68230;BME280;55048;52.220;5.160;2023-07-20T12:57:46;101386.38;;;26.22;38.52
68230;BME280;55048;52.220;5.160;2023-07-20T13:00:14;101355.94;;;25.73;39.26
68230;BME280;55048;52.220;5.160;2023-07-20T13:02:41;101340.16;;;25.49;40.04
68230;BME280;55048;52.220;5.160;2023-07-20T13:05:07;101422.63;;;25.58;39.14